Time;durP1;ratioP1;P1;durP2;ratioP2;P2;SDS_P1;SDS_P2;PMS_P1;PMS_P2;Temp;Humidity;BMP_temperature;BMP_pressure;BME280_temperature;BME280_humidity;BME280_pressure;Samples;Min_cycle;Max_cycle;Signal;HPM_P1;HPM_P2
2021/06/02 00:00:33;;;;;;;6.93;4.32;;;;;;;12.95;48.35;101729.97;5006727;28;20100;-69
2021/06/02 00:03:08;;;;;;;7.93;4.85;;;;;;;13.00;48.20;101728.00;5008298;28;20419;-68
2021/06/02 00:05:33;;;;;;;9.27;5.30;;;;;;;12.97;48.04;101728.13;5007511;28;20088;-68
2021/06/02 00:07:59;;;;;;;10.18;4.82;;;;;;;13.07;48.05;101729.53;5008685;28;20030;-68
2021/06/02 00:10:26;;;;;;;8.02;4.60;;;;;;;13.09;48.15;101730.34;5002026;28;20521;-68
2021/06/02 00:12:53;;;;;;;7.82;4.78;;;;;;;12.99;48.40;101728.09;5008588;28;20064;-68
2021/06/02 00:15:19;;;;;;;8.30;4.75;;;;;;;13.01;48.58;101724.50;5007715;28;20037;-69
2021/06/02 00:17:44;;;;;;;6.43;4.57;;;;;;;13.02;48.50;101726.19;5009396;28;20038;-69
2021/06/02 00:20:11;;;;;;;7.50;4.88;;;;;;;13.11;48.10;101720.59;5012614;28;20029;-69
2021/06/02 00:22:37;;;;;;;9.13;4.97;;;;;;;13.20;48.55;101718.56;5008396;28;20037;-69
2021/06/02 00:25:04;;;;;;;8.00;4.53;;;;;;;13.16;48.05;101711.69;5011201;28;20030;-69
2021/06/02 00:27:31;;;;;;;8.05;4.93;;;;;;;13.02;47.82;101714.84;5007763;28;20036;-68
2021/06/02 00:30:00;;;;;;;6.05;3.67;;;;;;;13.21;47.74;101715.03;5008554;28;20034;-68
2021/06/02 00:32:27;;;;;;;7.95;4.55;;;;;;;13.07;47.48;101716.41;4998929;28;20037;-72
2021/06/02 00:34:52;;;;;;;9.68;4.82;;;;;;;12.96;47.16;101721.19;5010088;28;20041;-72
2021/06/02 00:37:19;;;;;;;13.05;4.85;;;;;;;13.18;46.63;101715.97;5007651;28;20041;-68
2021/06/02 00:39:48;;;;;;;6.53;4.47;;;;;;;13.08;47.22;101714.63;5007281;28;20472;-69
2021/06/02 00:42:14;;;;;;;8.02;4.03;;;;;;;13.08;46.38;101719.88;5008184;28;20060;-69
2021/06/02 00:44:40;;;;;;;12.35;5.95;;;;;;;13.06;46.26;101721.69;5013609;28;20045;-69
2021/06/02 00:47:05;;;;;;;7.05;4.22;;;;;;;13.04;46.18;101718.28;5007481;28;20029;-70
2021/06/02 00:49:31;;;;;;;5.72;3.70;;;;;;;13.15;46.00;101716.09;5008713;28;20222;-69
2021/06/02 00:52:05;;;;;;;5.97;3.28;;;;;;;13.21;45.85;101715.88;5007547;28;20034;-69
2021/06/02 00:54:34;;;;;;;10.18;4.13;;;;;;;13.05;45.55;101714.75;5007494;28;20046;-69
2021/06/02 00:57:12;;;;;;;5.25;3.67;;;;;;;13.06;45.38;101712.06;5008124;28;20046;-69
2021/06/02 00:59:51;;;;;;;8.25;4.07;;;;;;;13.03;45.28;101713.94;5008841;28;20038;-69
2021/06/02 01:02:19;;;;;;;5.97;3.33;;;;;;;13.01;45.24;101713.16;5007216;28;20475;-69
2021/06/02 01:04:46;;;;;;;6.45;3.70;;;;;;;12.90;45.12;101716.16;5006014;28;20468;-69
2021/06/02 01:07:13;;;;;;;5.60;3.15;;;;;;;12.89;45.35;101714.44;4997187;28;20091;-69
2021/06/02 01:09:46;;;;;;;5.28;3.38;;;;;;;12.89;44.98;101717.06;5008161;28;20092;-69
2021/06/02 01:12:18;;;;;;;4.15;2.75;;;;;;;12.89;44.61;101719.69;5007373;28;20442;-69
2021/06/02 01:14:45;;;;;;;4.50;3.10;;;;;;;12.84;44.37;101722.47;4999610;28;20099;-68
2021/06/02 01:17:17;;;;;;;4.95;3.70;;;;;;;12.76;43.91;101713.16;5007363;28;20148;-69
2021/06/02 01:19:43;;;;;;;5.82;3.75;;;;;;;12.67;43.80;101724.84;5022256;28;20046;-70
2021/06/02 01:22:10;;;;;;;3.20;2.38;;;;;;;12.60;44.42;101732.06;5006238;28;20045;-69
2021/06/02 01:24:35;;;;;;;7.07;3.28;;;;;;;12.55;44.03;101726.09;5013701;28;20045;-69
2021/06/02 01:27:04;;;;;;;4.22;3.22;;;;;;;12.49;44.29;101721.06;5006684;28;20084;-69
2021/06/02 01:29:32;;;;;;;8.68;4.57;;;;;;;12.43;45.03;101730.00;5007424;28;20566;-69
2021/06/02 01:32:18;;;;;;;9.27;3.42;;;;;;;12.46;44.68;101731.66;5006343;28;20441;-69
2021/06/02 01:34:55;;;;;;;5.30;3.00;;;;;;;12.40;44.58;101731.88;5008124;28;20448;-68
2021/06/02 01:37:30;;;;;;;7.35;3.63;;;;;;;12.33;44.56;101728.59;5006509;28;20061;-68
2021/06/02 01:40:03;;;;;;;6.40;3.75;;;;;;;12.37;44.44;101729.38;5006346;28;20457;-68
2021/06/02 01:42:43;;;;;;;5.15;3.38;;;;;;;12.07;45.13;101737.34;5006296;28;20033;-68
2021/06/02 01:45:24;;;;;;;5.40;3.45;;;;;;;11.93;45.92;101727.28;5005908;28;20029;-73
2021/06/02 01:48:12;;;;;;;6.05;3.58;;;;;;;12.03;45.44;101728.72;5006166;28;20521;-73
2021/06/02 01:50:49;;;;;;;6.90;3.90;;;;;;;11.98;45.32;101729.78;5004587;28;20521;-73
2021/06/02 01:53:36;;;;;;;9.10;3.65;;;;;;;11.86;45.30;101718.78;5023498;28;20517;-73
2021/06/02 01:56:05;;;;;;;9.00;3.88;;;;;;;11.76;45.78;101722.56;5008042;28;20125;-73
2021/06/02 01:58:51;;;;;;;8.32;3.50;;;;;;;11.75;45.76;101725.22;5021697;28;20038;-73
2021/06/02 02:01:47;;;;;;;5.85;3.28;;;;;;;11.63;46.13;101726.47;5006455;28;20140;-73
2021/06/02 02:04:21;;;;;;;6.82;3.60;;;;;;;11.70;45.71;101725.38;5008593;28;20088;-69
2021/06/02 02:07:21;;;;;;;9.25;3.85;;;;;;;11.58;46.58;101723.16;5006760;28;20045;-70
2021/06/02 02:10:18;;;;;;;4.13;3.58;;;;;;;11.55;46.63;101723.22;5008618;28;20033;-72
2021/06/02 02:13:15;;;;;;;12.07;4.65;;;;;;;11.44;46.80;101724.44;4986952;28;20049;-73
2021/06/02 02:16:18;;;;;;;8.07;4.00;;;;;;;11.46;46.83;101717.38;5007124;28;20088;-73
2021/06/02 02:19:08;;;;;;;9.45;5.03;;;;;;;11.37;46.80;101712.41;5000740;28;20038;-73
2021/06/02 02:21:36;;;;;;;7.28;3.88;;;;;;;11.41;47.11;101708.78;5007543;28;20488;-73
2021/06/02 02:24:18;;;;;;;7.72;4.97;;;;;;;11.41;47.02;101713.19;5007818;28;20430;-73
2021/06/02 02:27:05;;;;;;;11.15;4.72;;;;;;;11.31;47.56;101719.59;5007134;28;20042;-73
2021/06/02 02:29:50;;;;;;;9.38;4.40;;;;;;;11.25;47.93;101712.78;5022837;28;20422;-72
2021/06/02 02:32:19;;;;;;;14.27;6.07;;;;;;;11.32;47.68;101703.84;4980917;28;20034;-69
2021/06/02 02:34:57;;;;;;;9.50;5.75;;;;;;;10.99;48.82;101709.16;5006773;28;20388;-70
2021/06/02 02:37:39;;;;;;;12.43;5.80;;;;;;;11.20;48.20;101710.31;5005368;28;20511;-70
2021/06/02 02:40:18;;;;;;;10.27;5.72;;;;;;;11.23;48.02;101711.97;5006730;28;20061;-71
2021/06/02 02:43:22;;;;;;;9.43;5.40;;;;;;;11.18;48.20;101713.88;5021039;28;20038;-72
2021/06/02 02:46:08;;;;;;;10.70;5.20;;;;;;;11.11;48.03;101714.97;4998510;28;20045;-70
2021/06/02 02:48:38;;;;;;;23.15;7.97;;;;;;;10.97;48.23;101713.59;5002563;28;20032;-70
2021/06/02 02:51:46;;;;;;;11.45;6.53;;;;;;;10.87;48.75;101712.13;5006292;28;20038;-71
2021/06/02 02:54:21;;;;;;;14.45;7.15;;;;;;;10.82;49.03;101724.47;4972163;28;20506;-70
2021/06/02 02:57:11;;;;;;;13.02;6.95;;;;;;;10.86;48.98;101720.88;5006264;28;20058;-69
2021/06/02 02:59:56;;;;;;;11.35;6.22;;;;;;;10.83;49.22;101726.19;5005723;28;20124;-70
2021/06/02 03:02:56;;;;;;;12.32;6.43;;;;;;;10.79;49.06;101727.13;5006713;28;20037;-70
2021/06/02 03:05:35;;;;;;;13.23;6.85;;;;;;;10.76;49.26;101727.22;5006184;28;20482;-70
2021/06/02 03:08:14;;;;;;;12.63;7.20;;;;;;;10.77;49.08;101729.81;5006651;28;20026;-70
2021/06/02 03:10:48;;;;;;;13.80;7.18;;;;;;;10.81;49.15;101727.94;5006204;28;20029;-70
2021/06/02 03:13:28;;;;;;;14.93;6.88;;;;;;;10.87;49.32;101738.28;5005098;28;20029;-70
2021/06/02 03:15:59;;;;;;;14.88;6.50;;;;;;;10.79;49.14;101729.75;4999633;28;20032;-70
2021/06/02 03:18:33;;;;;;;11.50;7.43;;;;;;;10.95;48.90;101736.31;5020955;28;20030;-71
2021/06/02 03:21:13;;;;;;;11.13;5.75;;;;;;;10.97;49.22;101729.28;5008282;28;20184;-70
2021/06/02 03:24:20;;;;;;;11.63;7.03;;;;;;;10.87;49.48;101727.81;5006401;28;20483;-69
2021/06/02 03:26:58;;;;;;;12.93;6.80;;;;;;;10.96;49.50;101724.94;4960764;28;20046;-70
2021/06/02 03:29:58;;;;;;;10.30;6.65;;;;;;;11.07;49.14;101722.03;5002685;28;20041;-70
2021/06/02 03:32:29;;;;;;;10.43;5.35;;;;;;;11.14;48.89;101725.31;5005359;28;20029;-71
2021/06/02 03:35:11;;;;;;;13.13;7.20;;;;;;;11.21;49.07;101716.38;5007630;28;20030;-70
2021/06/02 03:37:57;;;;;;;17.52;6.13;;;;;;;11.35;48.36;101711.63;5007004;28;20390;-69
2021/06/02 03:40:32;;;;;;;12.38;6.35;;;;;;;11.37;48.44;101716.78;4982241;28;20044;-68
2021/06/02 03:43:14;;;;;;;12.00;6.57;;;;;;;11.32;48.31;101724.78;5006335;28;20030;-70
2021/06/02 03:45:46;;;;;;;;;;;;;;;11.48;47.96;101719.94;5006862;28;20041;-70
2021/06/02 03:48:26;;;;;;;13.23;6.28;;;;;;;11.55;47.82;101725.84;5005744;28;20055;-70
2021/06/02 03:51:01;;;;;;;8.10;4.85;;;;;;;11.54;47.66;101721.53;5006861;28;20037;-70
2021/06/02 03:54:04;;;;;;;7.55;4.93;;;;;;;11.34;48.00;101729.97;5005792;28;20064;-70
2021/06/02 03:56:55;;;;;;;11.25;5.78;;;;;;;11.55;47.33;101726.69;5006322;28;20044;-70
2021/06/02 03:59:28;;;;;;;9.52;4.45;;;;;;;11.44;47.32;101723.56;5004965;28;20088;-71
2021/06/02 04:02:09;;;;;;;7.95;5.40;;;;;;;11.53;47.08;101722.41;5005551;28;20034;-72
2021/06/02 04:04:49;;;;;;;9.05;5.28;;;;;;;11.59;46.64;101717.00;5007115;28;20037;-71
2021/06/02 04:07:47;;;;;;;7.68;4.32;;;;;;;11.75;46.43;101723.47;5009395;28;20116;-70
2021/06/02 04:10:19;;;;;;;7.05;4.25;;;;;;;11.64;46.07;101720.31;5004475;28;20034;-70
2021/06/02 04:13:07;;;;;;;6.75;3.83;;;;;;;11.59;46.15;101715.22;5009540;28;20518;-70
2021/06/02 04:15:37;;;;;;;8.25;4.28;;;;;;;11.65;46.10;101716.81;5008133;28;20095;-70
2021/06/02 04:18:03;;;;;;;8.65;4.03;;;;;;;11.70;45.98;101712.28;5025648;28;20072;-70
2021/06/02 04:20:29;;;;;;;5.70;3.45;;;;;;;11.52;45.87;101718.09;5008372;28;20030;-70
2021/06/02 04:22:57;;;;;;;5.03;3.15;;;;;;;11.62;45.58;101711.66;5009797;28;20034;-70
2021/06/02 04:25:23;;;;;;;5.75;3.20;;;;;;;11.86;45.16;101710.06;4999086;28;20139;-69
2021/06/02 04:27:51;;;;;;;8.93;3.45;;;;;;;11.92;45.22;101706.41;5008815;28;20439;-70
2021/06/02 04:30:18;;;;;;;7.15;3.83;;;;;;;11.83;45.16;101700.53;5010347;28;20475;-72
2021/06/02 04:32:47;;;;;;;7.20;2.90;;;;;;;11.90;45.06;101702.97;5008423;28;20402;-73
2021/06/02 04:35:16;;;;;;;6.97;3.03;;;;;;;11.79;45.04;101706.78;5007974;28;20057;-73
2021/06/02 04:37:42;;;;;;;3.63;2.38;;;;;;;12.24;43.99;101708.78;5010619;28;20037;-72
2021/06/02 04:40:09;;;;;;;7.75;2.38;;;;;;;12.21;43.67;101705.44;5007749;28;20524;-71
2021/06/02 04:42:38;;;;;;;4.20;2.42;;;;;;;12.20;43.68;101709.84;5009523;28;20030;-70
2021/06/02 04:45:06;;;;;;;5.15;2.38;;;;;;;12.34;42.78;101713.75;5002583;28;20061;-69
2021/06/02 04:47:33;;;;;;;9.35;2.30;;;;;;;12.24;43.18;101705.31;5008940;28;20149;-69
2021/06/02 04:50:10;;;;;;;8.20;1.17;;;;;;;12.21;43.55;101711.53;5008264;28;20383;-68
2021/06/02 04:53:04;;;;;;;4.25;2.22;;;;;;;12.39;43.00;101711.81;5022813;28;20129;-68
2021/06/02 04:55:51;;;;;;;3.28;1.65;;;;;;;12.47;42.92;101715.91;5007976;28;20037;-69
2021/06/02 04:58:22;;;;;;;3.47;1.77;;;;;;;12.68;41.97;101721.28;5009051;28;20041;-71
2021/06/02 05:01:33;;;;;;;3.17;1.10;;;;;;;14.33;39.26;101728.97;5008563;28;20153;-73
2021/06/02 05:04:36;;;;;;;2.20;1.30;;;;;;;17.08;33.74;101723.75;4985997;28;20057;-69
2021/06/02 05:07:19;;;;;;;2.85;0.95;;;;;;;18.33;30.53;101725.53;5001719;28;20026;-69
2021/06/02 05:10:03;;;;;;;4.85;1.45;;;;;;;19.27;29.06;101725.09;5009138;28;20479;-69
2021/06/02 05:13:06;;;;;;;2.75;1.25;;;;;;;19.76;28.31;101735.22;4987234;28;20079;-68
2021/06/02 05:15:43;;;;;;;3.30;0.60;;;;;;;20.36;27.27;101733.91;5022103;28;20026;-69
2021/06/02 05:18:25;;;;;;;5.15;1.52;;;;;;;20.19;27.20;101731.50;5007733;28;20042;-71
2021/06/02 05:23:36;;;;;;;5.60;0.60;;;;;;;20.28;26.69;101731.78;5007233;28;20044;-70
2021/06/02 05:26:04;;;;;;;2.88;0.73;;;;;;;20.45;27.03;101735.91;5007180;28;20060;-70
2021/06/02 05:29:10;;;;;;;4.53;1.25;;;;;;;20.07;26.82;101727.88;4999986;28;20042;-72
2021/06/02 05:32:03;;;;;;;3.95;0.57;;;;;;;20.40;27.01;101732.72;5006115;28;20037;-69
2021/06/02 05:35:06;;;;;;;3.30;0.60;;;;;;;20.42;26.06;101733.47;5022867;28;20049;-69
2021/06/02 05:37:41;;;;;;;2.72;1.42;;;;;;;21.00;25.52;101738.34;5003184;28;20046;-68
2021/06/02 05:40:15;;;;;;;2.40;1.00;;;;;;;20.89;25.28;101737.31;5004542;28;20061;-68
2021/06/02 05:43:08;;;;;;;1.00;0.45;;;;;;;20.84;26.04;101736.81;4982270;28;20045;-68
2021/06/02 05:45:55;;;;;;;1.23;0.60;;;;;;;21.57;24.50;101740.47;5008195;28;20398;-68
2021/06/02 05:48:42;;;;;;;2.28;0.98;;;;;;;20.77;25.64;101738.13;5004207;28;20326;-68
2021/06/02 05:51:38;;;;;;;3.72;0.50;;;;;;;21.68;24.53;101739.69;4997834;28;20073;-68
2021/06/02 05:54:37;;;;;;;2.00;0.50;;;;;;;21.79;24.18;101736.22;5015881;28;20083;-68
2021/06/02 05:57:24;;;;;;;2.75;0.40;;;;;;;21.32;25.27;101744.88;5003921;28;20165;-68
2021/06/02 06:00:08;;;;;;;6.55;0.55;;;;;;;22.07;24.14;101746.50;5005243;28;20045;-68
2021/06/02 06:02:50;;;;;;;0.93;0.40;;;;;;;21.89;23.81;101746.06;5003702;28;20475;-67
2021/06/02 06:05:29;;;;;;;4.13;0.45;;;;;;;21.77;23.75;101744.31;5005616;28;20121;-69
2021/06/02 06:08:04;;;;;;;2.22;0.80;;;;;;;21.54;24.46;101740.69;5002510;28;20120;-68
2021/06/02 06:10:48;;;;;;;1.80;0.40;;;;;;;22.69;23.12;101748.00;4997255;28;20037;-68
2021/06/02 06:13:55;;;;;;;5.28;0.38;;;;;;;21.46;23.91;101732.38;5002287;28;20049;-68
2021/06/02 06:16:23;;;;;;;1.10;0.50;;;;;;;21.18;25.08;101745.03;5006239;28;20069;-68
2021/06/02 06:19:24;;;;;;;1.63;0.40;;;;;;;20.47;25.60;101746.44;5006359;28;20542;-69
2021/06/02 06:22:01;;;;;;;4.75;0.40;;;;;;;20.39;26.08;101740.78;5003460;28;20037;-68
2021/06/02 06:24:36;;;;;;;3.90;0.32;;;;;;;21.17;25.27;101740.66;5004783;28;20284;-68
2021/06/02 06:27:20;;;;;;;3.28;0.50;;;;;;;21.46;24.74;101741.22;5004046;28;20033;-69
2021/06/02 06:30:10;;;;;;;1.95;0.52;;;;;;;23.10;22.45;101743.06;5004487;28;20026;-69
2021/06/02 06:32:37;;;;;;;6.07;0.60;;;;;;;24.37;21.39;101737.03;5003336;28;20042;-68
2021/06/02 06:35:05;;;;;;;2.42;0.30;;;;;;;24.75;21.14;101740.91;5001062;28;20053;-69
2021/06/02 06:37:35;;;;;;;1.48;0.43;;;;;;;24.25;21.52;101738.94;5004488;28;20546;-68
2021/06/02 06:40:07;;;;;;;1.70;0.43;;;;;;;23.77;21.80;101734.91;5002487;28;20030;-67
2021/06/02 06:42:41;;;;;;;0.93;0.30;;;;;;;22.64;23.14;101736.00;5004221;28;20509;-68
2021/06/02 06:45:30;;;;;;;0.73;0.30;;;;;;;22.58;22.85;101727.53;5004627;28;20040;-68
2021/06/02 06:47:58;;;;;;;3.75;0.70;;;;;;;23.41;22.42;101720.97;5005018;28;20025;-67
2021/06/02 06:50:23;;;;;;;1.48;0.40;;;;;;;24.45;21.30;101723.88;5004135;28;20029;-68
2021/06/02 06:52:52;;;;;;;0.85;0.50;;;;;;;24.72;20.84;101720.63;5002613;28;20580;-68
2021/06/02 06:55:18;;;;;;;1.73;0.40;;;;;;;23.58;21.74;101724.03;4997076;28;20687;-68
2021/06/02 06:57:45;;;;;;;1.58;0.43;;;;;;;24.35;21.07;101713.13;5003744;28;20037;-68
2021/06/02 07:00:12;;;;;;;1.25;0.40;;;;;;;24.72;20.77;101714.44;5003409;28;20419;-68
2021/06/02 07:02:39;;;;;;;2.83;0.75;;;;;;;24.81;20.89;101714.47;4993802;28;20506;-67
2021/06/02 07:05:06;;;;;;;1.17;0.45;;;;;;;25.48;20.41;101717.47;5000870;28;20142;-68
2021/06/02 07:07:35;;;;;;;0.68;0.20;;;;;;;25.65;19.86;101713.31;5000952;28;20156;-68
2021/06/02 07:10:03;;;;;;;1.63;0.50;;;;;;;25.55;19.51;101709.78;5001030;28;20064;-67
2021/06/02 07:12:31;;;;;;;4.30;1.00;;;;;;;25.38;20.02;101705.94;5003546;28;20038;-68
2021/06/02 07:14:59;;;;;;;3.95;0.50;;;;;;;25.31;20.23;101702.97;5003404;28;20069;-68
2021/06/02 07:17:26;;;;;;;2.30;0.40;;;;;;;25.12;20.81;101698.44;5003296;28;20128;-68
2021/06/02 07:20:03;;;;;;;3.60;0.50;;;;;;;25.51;20.17;101702.97;5002846;28;20117;-69
2021/06/02 07:22:32;;;;;;;1.17;0.40;;;;;;;24.52;20.90;101702.84;5002567;28;20113;-68
2021/06/02 07:24:58;;;;;;;1.23;0.52;;;;;;;23.86;21.88;101716.47;5003072;28;20035;-67
2021/06/02 07:27:26;;;;;;;1.77;0.40;;;;;;;24.31;21.52;101716.19;5001490;28;20036;-68
2021/06/02 07:29:51;;;;;;;3.10;0.85;;;;;;;24.64;21.07;101718.66;5001891;28;20691;-69
2021/06/02 07:32:18;;;;;;;1.35;0.50;;;;;;;25.55;20.01;101709.78;5000644;28;20044;-68
2021/06/02 07:34:43;;;;;;;2.90;0.50;;;;;;;26.41;19.61;101712.53;5003812;28;20030;-68
2021/06/02 07:37:09;;;;;;;1.83;0.60;;;;;;;27.05;17.95;101716.19;5002752;28;20064;-68
2021/06/02 07:39:35;;;;;;;2.50;0.40;;;;;;;27.23;18.17;101717.13;5005475;28;20429;-68
2021/06/02 07:42:01;;;;;;;3.28;0.55;;;;;;;26.00;19.41;101717.22;5003637;28;20445;-68
2021/06/02 07:44:26;;;;;;;1.90;0.68;;;;;;;26.21;19.05;101707.22;5005191;28;20052;-70
2021/06/02 07:46:52;;;;;;;2.13;0.40;;;;;;;26.62;18.75;101706.97;5004816;28;20052;-68
2021/06/02 07:49:17;;;;;;;1.85;0.50;;;;;;;26.72;19.42;101712.28;5005934;28;20434;-68
2021/06/02 07:51:43;;;;;;;0.73;0.30;;;;;;;26.10;19.26;101709.22;4998220;28;20038;-68
2021/06/02 07:54:09;;;;;;;1.13;0.50;;;;;;;25.43;19.91;101703.69;5005264;28;20033;-68
2021/06/02 07:56:34;;;;;;;3.22;0.50;;;;;;;25.88;19.45;101698.63;5005626;28;20221;-68
2021/06/02 07:59:00;;;;;;;1.52;0.50;;;;;;;26.74;18.84;101721.88;5005220;28;20026;-68
2021/06/02 08:01:27;;;;;;;1.60;0.57;;;;;;;25.24;20.05;101709.84;5003546;28;20524;-67
2021/06/02 08:03:53;;;;;;;2.20;0.65;;;;;;;25.18;20.63;101721.94;5003839;28;20033;-68
2021/06/02 08:06:19;;;;;;;1.30;0.50;;;;;;;25.87;19.96;101706.81;5002671;28;20996;-68
2021/06/02 08:08:44;;;;;;;3.05;0.82;;;;;;;26.33;19.13;101704.34;5005000;28;20057;-68
2021/06/02 08:11:10;;;;;;;3.22;1.23;;;;;;;26.79;19.31;101706.19;5004159;28;20315;-69
2021/06/02 08:13:36;;;;;;;5.15;0.60;;;;;;;27.67;18.34;101708.31;5004355;28;20065;-69
2021/06/02 08:16:01;;;;;;;1.45;0.40;;;;;;;26.94;18.90;101709.22;5005090;28;20164;-68
2021/06/02 08:18:27;;;;;;;2.10;0.30;;;;;;;27.29;18.12;101702.22;5003970;28;20042;-68
2021/06/02 08:20:53;;;;;;;5.82;1.63;;;;;;;26.96;18.30;101707.22;5004771;28;20034;-69
2021/06/02 08:23:18;;;;;;;5.93;2.35;;;;;;;25.69;20.08;101709.38;5002062;28;20044;-69
2021/06/02 08:25:44;;;;;;;7.57;0.93;;;;;;;26.00;19.97;101712.72;5004215;28;20038;-68
2021/06/02 08:28:09;;;;;;;2.58;0.70;;;;;;;26.06;20.18;101714.00;5004588;28;20061;-69
2021/06/02 08:30:34;;;;;;;1.23;0.52;;;;;;;26.45;19.60;101708.56;5003144;28;20506;-69
2021/06/02 08:33:00;;;;;;;3.25;1.23;;;;;;;25.52;19.97;101708.22;5003386;28;20127;-70
2021/06/02 08:35:28;;;;;;;1.98;1.02;;;;;;;25.46;20.46;101701.59;5004105;28;20124;-68
2021/06/02 08:37:55;;;;;;;9.68;3.15;;;;;;;26.01;19.97;101697.50;5004831;28;20154;-68
2021/06/02 08:40:21;;;;;;;1.48;0.77;;;;;;;26.78;19.33;101701.81;5001953;28;20062;-68
2021/06/02 08:42:47;;;;;;;3.65;0.98;;;;;;;26.64;19.74;101710.34;5003764;28;20394;-69
2021/06/02 08:45:15;;;;;;;4.57;0.60;;;;;;;27.24;18.50;101707.22;5004412;28;20113;-68
2021/06/02 08:47:42;;;;;;;3.45;0.70;;;;;;;27.41;18.66;101706.41;5004375;28;20117;-70
2021/06/02 08:50:10;;;;;;;5.63;1.00;;;;;;;26.73;19.88;101700.56;4992974;28;20037;-68
2021/06/02 08:52:37;;;;;;;1.83;0.80;;;;;;;26.85;19.60;101702.06;5003026;28;20033;-70
2021/06/02 08:55:05;;;;;;;1.73;0.60;;;;;;;27.49;19.27;101705.63;5002439;28;20583;-68
2021/06/02 08:57:32;;;;;;;3.15;0.90;;;;;;;27.26;19.25;101697.19;5002212;28;20034;-68
2021/06/02 08:59:57;;;;;;;2.15;0.85;;;;;;;27.73;18.85;101700.50;5019895;28;20065;-67
2021/06/02 09:02:22;;;;;;;1.30;0.75;;;;;;;26.75;19.44;101698.59;5002941;28;20553;-68
2021/06/02 09:04:48;;;;;;;3.03;0.90;;;;;;;26.52;20.12;101698.94;5006788;28;20037;-67
2021/06/02 09:07:14;;;;;;;3.95;1.10;;;;;;;26.86;19.50;101690.34;5003854;28;20112;-71
2021/06/02 09:09:40;;;;;;;2.22;0.90;;;;;;;26.32;20.45;101695.47;5001468;28;20036;-69
2021/06/02 09:12:09;;;;;;;6.15;1.45;;;;;;;26.02;20.17;101688.44;5003715;28;20033;-69
2021/06/02 09:14:37;;;;;;;3.63;0.98;;;;;;;26.28;20.84;101684.19;5016401;28;20065;-69
2021/06/02 09:17:06;;;;;;;1.35;0.95;;;;;;;25.87;20.96;101686.25;5002940;28;20575;-69
2021/06/02 09:19:32;;;;;;;4.63;0.88;;;;;;;26.06;20.44;101690.72;5005589;28;20410;-69
2021/06/02 09:21:59;;;;;;;1.55;0.60;;;;;;;25.50;21.48;101693.28;5003812;28;20312;-70
2021/06/02 09:24:50;;;;;;;2.28;1.17;;;;;;;25.31;21.36;101694.06;5008544;28;20030;-69
2021/06/02 09:27:18;;;;;;;1.07;0.70;;;;;;;24.56;21.76;101686.41;5006202;28;20403;-69
2021/06/02 09:29:51;;;;;;;4.18;1.00;;;;;;;24.02;22.36;101695.50;5005291;28;20634;-70
2021/06/02 09:32:18;;;;;;;4.55;1.63;;;;;;;23.93;22.73;101697.13;5005034;28;20081;-71
2021/06/02 09:34:43;;;;;;;5.28;1.02;;;;;;;23.34;23.36;101701.09;5004888;28;20029;-69
2021/06/02 09:37:09;;;;;;;2.15;1.05;;;;;;;23.30;24.40;101696.97;5001339;28;20188;-69
2021/06/02 09:39:40;;;;;;;4.60;1.75;;;;;;;22.62;23.57;101696.13;5004453;28;20040;-69
2021/06/02 09:42:28;;;;;;;5.60;1.10;;;;;;;21.59;25.06;101698.66;5003354;28;20081;-69
2021/06/02 09:45:01;;;;;;;2.33;0.85;;;;;;;21.18;25.61;101694.53;5003612;28;20036;-68
2021/06/02 09:47:40;;;;;;;2.20;0.82;;;;;;;21.51;25.52;101685.06;4996487;28;20026;-68
2021/06/02 09:50:06;;;;;;;4.85;1.02;;;;;;;21.47;25.30;101696.88;5003717;28;20029;-69
2021/06/02 09:52:50;;;;;;;3.90;0.90;;;;;;;21.97;26.01;101693.09;5006956;28;20026;-69
2021/06/02 09:55:23;;;;;;;5.68;0.98;;;;;;;22.06;24.63;101686.22;5003900;28;20577;-70
2021/06/02 09:58:09;;;;;;;2.22;0.90;;;;;;;21.96;25.39;101691.41;5004827;28;20045;-68
2021/06/02 10:00:53;;;;;;;2.15;1.00;;;;;;;22.30;25.13;101688.84;4997050;28;20145;-70
2021/06/02 10:03:20;;;;;;;3.53;0.93;;;;;;;22.56;24.83;101688.63;5002072;28;20502;-69
2021/06/02 10:05:50;;;;;;;3.60;1.35;;;;;;;21.48;25.41;101687.94;5002729;28;20276;-69
2021/06/02 10:08:30;;;;;;;1.90;0.85;;;;;;;21.68;25.51;101684.66;5002400;28;20350;-69
2021/06/02 10:10:57;;;;;;;3.53;1.20;;;;;;;20.87;26.65;101683.44;4992618;28;20264;-70
2021/06/02 10:13:27;;;;;;;6.30;1.05;;;;;;;21.27;26.15;101691.19;5001921;28;20096;-68
2021/06/02 10:15:53;;;;;;;3.28;1.17;;;;;;;21.31;26.17;101678.50;5003742;28;20326;-69
2021/06/02 10:18:32;;;;;;;4.85;1.00;;;;;;;21.73;26.41;101682.47;5001538;28;20826;-69
2021/06/02 10:20:58;;;;;;;6.20;1.92;;;;;;;22.22;25.11;101685.09;5004358;28;20029;-69
2021/06/02 10:23:30;;;;;;;4.15;1.08;;;;;;;22.11;25.18;101684.09;5003851;28;20045;-70
2021/06/02 10:25:56;;;;;;;;;;;;;;;21.88;25.33;101682.31;5004743;28;20053;-68
2021/06/02 10:28:24;;;;;;;4.95;1.45;;;;;;;22.81;25.02;101687.59;5005591;28;19924;-68
2021/06/02 10:30:50;;;;;;;6.13;2.28;;;;;;;22.79;24.34;101682.38;5005105;28;20056;-69
2021/06/02 10:33:15;;;;;;;4.82;2.03;;;;;;;22.71;23.80;101682.13;5000228;28;20030;-68
2021/06/02 10:35:41;;;;;;;4.78;1.35;;;;;;;22.90;24.33;101686.84;5008315;28;20029;-70
2021/06/02 10:38:07;;;;;;;3.40;1.27;;;;;;;23.07;23.52;101685.47;5005332;28;20041;-69
2021/06/02 10:40:37;;;;;;;3.50;1.40;;;;;;;23.08;23.92;101681.84;4998183;28;20029;-70
2021/06/02 10:43:19;;;;;;;5.30;1.38;;;;;;;23.25;23.96;101683.13;5006120;28;20502;-69
2021/06/02 10:45:50;;;;;;;7.47;2.28;;;;;;;22.55;23.87;101686.94;5005799;28;20054;-69
2021/06/02 10:48:36;;;;;;;;;;;;;;;22.73;24.08;101687.34;5004509;28;20061;-69
2021/06/02 10:51:01;;;;;;;2.50;0.88;;;;;;;22.70;24.67;101691.09;5006078;28;20289;-68
2021/06/02 10:53:28;;;;;;;3.53;1.75;;;;;;;22.94;25.30;101692.75;5009610;28;20041;-69
2021/06/02 10:55:57;;;;;;;4.47;1.50;;;;;;;22.50;23.94;101687.31;5007126;28;20029;-69
2021/06/02 10:58:28;;;;;;;2.65;1.15;;;;;;;21.90;23.92;101686.53;5005763;28;20045;-70
2021/06/02 11:01:06;;;;;;;;;;;;;;;21.92;24.27;101691.75;5022382;28;20468;-68
2021/06/02 11:03:33;;;;;;;2.58;0.80;;;;;;;22.39;24.23;101700.59;5004725;28;19921;-69
2021/06/02 11:06:14;;;;;;;2.55;1.05;;;;;;;22.17;24.19;101696.09;5006255;28;20029;-68
2021/06/02 11:08:48;;;;;;;5.72;1.20;;;;;;;21.80;25.45;101688.19;5018707;28;20035;-69
2021/06/02 11:11:31;;;;;;;3.22;1.10;;;;;;;21.83;25.02;101695.97;5004965;28;20441;-68
2021/06/02 11:14:15;;;;;;;2.35;1.17;;;;;;;22.31;24.45;101692.34;4995584;28;20033;-68
2021/06/02 11:17:00;;;;;;;3.67;2.05;;;;;;;23.11;23.66;101692.25;5024512;28;20044;-68
2021/06/02 11:19:35;;;;;;;3.33;1.52;;;;;;;23.27;24.24;101691.00;5009797;28;20139;-69
2021/06/02 11:22:04;;;;;;;5.40;2.00;;;;;;;23.49;23.93;101687.47;5008612;28;20164;-69
2021/06/02 11:24:37;;;;;;;2.08;1.20;;;;;;;22.58;23.95;101684.03;5010061;28;20119;-69
2021/06/02 11:27:11;;;;;;;5.07;1.30;;;;;;;22.56;24.55;101686.81;5008887;28;20033;-70
2021/06/02 11:29:46;;;;;;;2.70;1.10;;;;;;;22.64;23.82;101688.03;5024191;28;20031;-69
2021/06/02 11:32:25;;;;;;;2.60;0.93;;;;;;;22.08;24.74;101691.44;5008744;28;20245;-69
2021/06/02 11:34:53;;;;;;;5.13;1.27;;;;;;;22.28;25.02;101679.28;5013010;28;20442;-68
2021/06/02 11:37:22;;;;;;;5.50;1.02;;;;;;;23.06;24.68;101674.94;5010457;28;20030;-69
2021/06/02 11:39:51;;;;;;;2.40;0.80;;;;;;;23.45;25.45;101673.50;5012283;28;20768;-69
2021/06/02 11:42:29;;;;;;;1.52;0.77;;;;;;;23.42;23.38;101677.28;5024857;28;20034;-70
2021/06/02 11:45:05;;;;;;;6.18;1.65;;;;;;;23.52;22.81;101669.38;5009324;28;20517;-70
2021/06/02 11:47:31;;;;;;;2.78;0.70;;;;;;;24.21;22.95;101673.38;5008816;28;20041;-69
2021/06/02 11:50:11;;;;;;;2.00;0.85;;;;;;;23.01;23.70;101678.00;5009153;28;20025;-70
2021/06/02 11:52:37;;;;;;;5.13;1.33;;;;;;;23.89;23.76;101673.47;5009543;28;20026;-71
2021/06/02 11:55:09;;;;;;;7.35;1.63;;;;;;;23.79;23.46;101658.22;4986193;28;20614;-69
2021/06/02 11:57:45;;;;;;;3.88;1.05;;;;;;;23.90;23.37;101664.47;5010701;28;20403;-68
2021/06/02 12:00:16;;;;;;;1.83;1.15;;;;;;;24.29;22.08;101662.06;5023888;28;20030;-67